sensor_id;sensor_type;location;lat;lon;timestamp;P1;durP1;ratioP1;P2;durP2;ratioP2
17854;SDS011;9053;53.358;6.382;2024-02-16T00:01:53;6.37;;;4.27;;
17854;SDS011;9053;53.358;6.382;2024-02-16T00:04:31;5.53;;;4.07;;
17854;SDS011;9053;53.358;6.382;2024-02-16T00:07:05;5.23;;;3.33;;
17854;SDS011;9053;53.358;6.382;2024-02-16T00:09:35;6.80;;;3.90;;
17854;SDS011;9053;53.358;6.382;2024-02-16T00:12:07;4.50;;;3.67;;
17854;SDS011;9053;53.358;6.382;2024-02-16T00:14:52;4.43;;;3.77;;
17854;SDS011;9053;53.358;6.382;2024-02-16T00:17:26;6.80;;;3.73;;
17854;SDS011;9053;53.358;6.382;2024-02-16T00:20:00;5.37;;;3.33;;
17854;SDS011;9053;53.358;6.382;2024-02-16T00:22:35;5.70;;;3.90;;
17854;SDS011;9053;53.358;6.382;2024-02-16T00:25:07;5.80;;;4.23;;
17854;SDS011;9053;53.358;6.382;2024-02-16T00:27:38;5.73;;;3.80;;
17854;SDS011;9053;53.358;6.382;2024-02-16T00:30:14;4.57;;;3.90;;
17854;SDS011;9053;53.358;6.382;2024-02-16T00:32:45;4.40;;;3.40;;
17854;SDS011;9053;53.358;6.382;2024-02-16T00:35:19;5.57;;;3.87;;
17854;SDS011;9053;53.358;6.382;2024-02-16T00:37:51;7.73;;;3.67;;
17854;SDS011;9053;53.358;6.382;2024-02-16T00:40:31;5.90;;;3.80;;
17854;SDS011;9053;53.358;6.382;2024-02-16T00:43:03;8.43;;;3.83;;
17854;SDS011;9053;53.358;6.382;2024-02-16T00:45:36;7.07;;;4.17;;
17854;SDS011;9053;53.358;6.382;2024-02-16T00:48:10;8.13;;;4.13;;
17854;SDS011;9053;53.358;6.382;2024-02-16T00:50:46;6.20;;;3.97;;
17854;SDS011;9053;53.358;6.382;2024-02-16T00:53:19;5.63;;;3.70;;
17854;SDS011;9053;53.358;6.382;2024-02-16T00:55:49;5.77;;;3.93;;
17854;SDS011;9053;53.358;6.382;2024-02-16T00:58:20;5.13;;;4.00;;
17854;SDS011;9053;53.358;6.382;2024-02-16T01:00:50;7.20;;;4.00;;
17854;SDS011;9053;53.358;6.382;2024-02-16T01:03:22;6.83;;;4.13;;
17854;SDS011;9053;53.358;6.382;2024-02-16T01:05:56;5.80;;;3.93;;
17854;SDS011;9053;53.358;6.382;2024-02-16T01:08:33;5.33;;;3.80;;
17854;SDS011;9053;53.358;6.382;2024-02-16T01:11:05;5.30;;;3.50;;
17854;SDS011;9053;53.358;6.382;2024-02-16T01:13:43;8.63;;;4.17;;
17854;SDS011;9053;53.358;6.382;2024-02-16T01:16:13;6.67;;;3.97;;
17854;SDS011;9053;53.358;6.382;2024-02-16T01:18:46;6.43;;;4.00;;
17854;SDS011;9053;53.358;6.382;2024-02-16T01:21:19;6.63;;;3.80;;
17854;SDS011;9053;53.358;6.382;2024-02-16T01:26:31;6.30;;;3.80;;
17854;SDS011;9053;53.358;6.382;2024-02-16T01:29:04;6.13;;;4.17;;
17854;SDS011;9053;53.358;6.382;2024-02-16T01:31:35;7.00;;;3.50;;
17854;SDS011;9053;53.358;6.382;2024-02-16T01:34:08;5.90;;;3.80;;
17854;SDS011;9053;53.358;6.382;2024-02-16T01:36:42;5.60;;;3.40;;
17854;SDS011;9053;53.358;6.382;2024-02-16T01:39:15;5.50;;;3.80;;
17854;SDS011;9053;53.358;6.382;2024-02-16T01:41:48;6.80;;;4.03;;
17854;SDS011;9053;53.358;6.382;2024-02-16T01:44:18;5.37;;;3.80;;
17854;SDS011;9053;53.358;6.382;2024-02-16T01:46:48;5.40;;;3.70;;
17854;SDS011;9053;53.358;6.382;2024-02-16T01:49:22;4.90;;;3.67;;
17854;SDS011;9053;53.358;6.382;2024-02-16T01:51:57;6.63;;;3.73;;
17854;SDS011;9053;53.358;6.382;2024-02-16T01:54:30;5.77;;;3.47;;
17854;SDS011;9053;53.358;6.382;2024-02-16T01:57:09;7.40;;;4.60;;
17854;SDS011;9053;53.358;6.382;2024-02-16T01:59:46;8.93;;;4.57;;
17854;SDS011;9053;53.358;6.382;2024-02-16T02:02:20;6.60;;;3.80;;
17854;SDS011;9053;53.358;6.382;2024-02-16T02:04:56;5.60;;;3.77;;
17854;SDS011;9053;53.358;6.382;2024-02-16T02:07:32;4.80;;;3.77;;
17854;SDS011;9053;53.358;6.382;2024-02-16T02:10:10;5.53;;;3.70;;
17854;SDS011;9053;53.358;6.382;2024-02-16T02:12:42;5.47;;;3.77;;
17854;SDS011;9053;53.358;6.382;2024-02-16T02:15:12;6.97;;;4.37;;
17854;SDS011;9053;53.358;6.382;2024-02-16T02:17:45;5.93;;;3.70;;
17854;SDS011;9053;53.358;6.382;2024-02-16T02:20:15;5.50;;;3.80;;
17854;SDS011;9053;53.358;6.382;2024-02-16T02:22:54;5.67;;;3.63;;
17854;SDS011;9053;53.358;6.382;2024-02-16T02:25:24;5.73;;;4.03;;
17854;SDS011;9053;53.358;6.382;2024-02-16T02:27:55;5.77;;;3.70;;
17854;SDS011;9053;53.358;6.382;2024-02-16T02:30:28;4.67;;;3.60;;
17854;SDS011;9053;53.358;6.382;2024-02-16T02:32:58;6.60;;;4.00;;
17854;SDS011;9053;53.358;6.382;2024-02-16T02:35:28;5.07;;;3.40;;
17854;SDS011;9053;53.358;6.382;2024-02-16T02:38:01;5.10;;;3.80;;
17854;SDS011;9053;53.358;6.382;2024-02-16T02:40:32;5.33;;;3.57;;
17854;SDS011;9053;53.358;6.382;2024-02-16T02:43:03;5.50;;;3.80;;
17854;SDS011;9053;53.358;6.382;2024-02-16T02:45:36;6.60;;;3.70;;
17854;SDS011;9053;53.358;6.382;2024-02-16T02:48:08;5.67;;;3.70;;
17854;SDS011;9053;53.358;6.382;2024-02-16T02:50:40;5.60;;;3.80;;
17854;SDS011;9053;53.358;6.382;2024-02-16T02:53:14;6.00;;;3.70;;
17854;SDS011;9053;53.358;6.382;2024-02-16T02:55:50;8.13;;;3.63;;
17854;SDS011;9053;53.358;6.382;2024-02-16T02:58:20;5.77;;;4.17;;
17854;SDS011;9053;53.358;6.382;2024-02-16T03:00:55;7.37;;;4.20;;
17854;SDS011;9053;53.358;6.382;2024-02-16T03:03:28;6.50;;;4.27;;
17854;SDS011;9053;53.358;6.382;2024-02-16T03:06:03;5.00;;;3.87;;
17854;SDS011;9053;53.358;6.382;2024-02-16T03:08:41;4.93;;;3.43;;
17854;SDS011;9053;53.358;6.382;2024-02-16T03:11:16;7.70;;;4.30;;
17854;SDS011;9053;53.358;6.382;2024-02-16T03:13:48;6.00;;;3.83;;
17854;SDS011;9053;53.358;6.382;2024-02-16T03:16:18;4.90;;;3.63;;
17854;SDS011;9053;53.358;6.382;2024-02-16T03:18:51;5.27;;;4.30;;
17854;SDS011;9053;53.358;6.382;2024-02-16T03:21:23;4.13;;;3.53;;
17854;SDS011;9053;53.358;6.382;2024-02-16T03:23:58;6.27;;;3.67;;
17854;SDS011;9053;53.358;6.382;2024-02-16T03:26:28;5.23;;;3.90;;
17854;SDS011;9053;53.358;6.382;2024-02-16T03:28:58;5.30;;;3.90;;
17854;SDS011;9053;53.358;6.382;2024-02-16T03:31:29;6.03;;;3.83;;
17854;SDS011;9053;53.358;6.382;2024-02-16T03:34:02;7.27;;;3.90;;
17854;SDS011;9053;53.358;6.382;2024-02-16T03:36:34;4.40;;;4.00;;
17854;SDS011;9053;53.358;6.382;2024-02-16T03:39:21;5.97;;;4.20;;
17854;SDS011;9053;53.358;6.382;2024-02-16T03:41:51;6.33;;;3.77;;
17854;SDS011;9053;53.358;6.382;2024-02-16T03:44:26;7.73;;;3.97;;
17854;SDS011;9053;53.358;6.382;2024-02-16T03:46:56;6.90;;;3.77;;
17854;SDS011;9053;53.358;6.382;2024-02-16T03:49:26;5.33;;;3.50;;
17854;SDS011;9053;53.358;6.382;2024-02-16T03:51:59;6.00;;;3.87;;
17854;SDS011;9053;53.358;6.382;2024-02-16T03:54:32;4.43;;;3.77;;
17854;SDS011;9053;53.358;6.382;2024-02-16T03:57:02;6.80;;;3.63;;
17854;SDS011;9053;53.358;6.382;2024-02-16T03:59:39;6.47;;;4.00;;
17854;SDS011;9053;53.358;6.382;2024-02-16T04:02:10;6.27;;;3.70;;
17854;SDS011;9053;53.358;6.382;2024-02-16T04:04:58;5.33;;;3.93;;
17854;SDS011;9053;53.358;6.382;2024-02-16T04:07:32;4.53;;;3.40;;
17854;SDS011;9053;53.358;6.382;2024-02-16T04:10:11;5.03;;;3.73;;
17854;SDS011;9053;53.358;6.382;2024-02-16T04:12:41;6.47;;;3.80;;
17854;SDS011;9053;53.358;6.382;2024-02-16T04:15:11;5.13;;;4.00;;
17854;SDS011;9053;53.358;6.382;2024-02-16T04:17:43;5.87;;;3.57;;
17854;SDS011;9053;53.358;6.382;2024-02-16T04:20:16;5.13;;;3.80;;
17854;SDS011;9053;53.358;6.382;2024-02-16T04:22:46;6.30;;;4.07;;
17854;SDS011;9053;53.358;6.382;2024-02-16T04:25:22;5.73;;;4.00;;
17854;SDS011;9053;53.358;6.382;2024-02-16T04:27:54;5.30;;;3.87;;
17854;SDS011;9053;53.358;6.382;2024-02-16T04:30:23;6.00;;;3.93;;
17854;SDS011;9053;53.358;6.382;2024-02-16T04:32:54;4.20;;;3.57;;
17854;SDS011;9053;53.358;6.382;2024-02-16T04:35:31;4.97;;;3.97;;
17854;SDS011;9053;53.358;6.382;2024-02-16T04:38:02;6.00;;;4.00;;
17854;SDS011;9053;53.358;6.382;2024-02-16T04:40:36;6.00;;;3.90;;
17854;SDS011;9053;53.358;6.382;2024-02-16T04:43:07;5.90;;;3.50;;
17854;SDS011;9053;53.358;6.382;2024-02-16T04:45:38;5.67;;;3.70;;
17854;SDS011;9053;53.358;6.382;2024-02-16T04:48:14;4.07;;;3.30;;
17854;SDS011;9053;53.358;6.382;2024-02-16T04:50:44;4.73;;;3.60;;
17854;SDS011;9053;53.358;6.382;2024-02-16T04:53:16;4.93;;;3.57;;
17854;SDS011;9053;53.358;6.382;2024-02-16T04:55:49;5.57;;;3.90;;
17854;SDS011;9053;53.358;6.382;2024-02-16T04:58:22;5.87;;;4.00;;
17854;SDS011;9053;53.358;6.382;2024-02-16T05:00:53;5.67;;;3.90;;
17854;SDS011;9053;53.358;6.382;2024-02-16T05:03:27;3.83;;;3.23;;
17854;SDS011;9053;53.358;6.382;2024-02-16T05:05:58;5.57;;;3.70;;
17854;SDS011;9053;53.358;6.382;2024-02-16T05:08:32;4.27;;;3.50;;
17854;SDS011;9053;53.358;6.382;2024-02-16T05:11:06;5.33;;;3.87;;
17854;SDS011;9053;53.358;6.382;2024-02-16T05:13:40;4.80;;;3.80;;
17854;SDS011;9053;53.358;6.382;2024-02-16T05:16:15;8.70;;;4.50;;
17854;SDS011;9053;53.358;6.382;2024-02-16T05:18:48;6.23;;;3.87;;
17854;SDS011;9053;53.358;6.382;2024-02-16T05:21:18;4.17;;;3.13;;
17854;SDS011;9053;53.358;6.382;2024-02-16T05:23:49;5.07;;;3.40;;
17854;SDS011;9053;53.358;6.382;2024-02-16T05:26:25;5.10;;;3.33;;
17854;SDS011;9053;53.358;6.382;2024-02-16T05:29:13;5.60;;;3.40;;
17854;SDS011;9053;53.358;6.382;2024-02-16T05:31:46;4.10;;;3.10;;
17854;SDS011;9053;53.358;6.382;2024-02-16T05:34:18;5.00;;;3.33;;
17854;SDS011;9053;53.358;6.382;2024-02-16T05:36:59;5.43;;;3.60;;
17854;SDS011;9053;53.358;6.382;2024-02-16T05:39:33;5.13;;;3.57;;
17854;SDS011;9053;53.358;6.382;2024-02-16T05:42:23;4.40;;;3.83;;
17854;SDS011;9053;53.358;6.382;2024-02-16T05:44:56;5.73;;;3.77;;
17854;SDS011;9053;53.358;6.382;2024-02-16T05:47:27;5.37;;;3.50;;
17854;SDS011;9053;53.358;6.382;2024-02-16T05:50:00;4.20;;;3.27;;
17854;SDS011;9053;53.358;6.382;2024-02-16T05:52:32;4.30;;;3.33;;
17854;SDS011;9053;53.358;6.382;2024-02-16T05:55:09;5.13;;;3.70;;
17854;SDS011;9053;53.358;6.382;2024-02-16T05:57:45;3.90;;;3.13;;
17854;SDS011;9053;53.358;6.382;2024-02-16T06:00:16;4.97;;;3.60;;
17854;SDS011;9053;53.358;6.382;2024-02-16T06:02:48;6.37;;;3.60;;
17854;SDS011;9053;53.358;6.382;2024-02-16T06:05:22;4.27;;;3.20;;
17854;SDS011;9053;53.358;6.382;2024-02-16T06:07:52;5.83;;;3.40;;
17854;SDS011;9053;53.358;6.382;2024-02-16T06:10:27;5.20;;;3.33;;
17854;SDS011;9053;53.358;6.382;2024-02-16T06:13:05;4.27;;;3.27;;
17854;SDS011;9053;53.358;6.382;2024-02-16T06:15:35;5.37;;;3.57;;
17854;SDS011;9053;53.358;6.382;2024-02-16T06:18:07;3.33;;;2.80;;
17854;SDS011;9053;53.358;6.382;2024-02-16T06:20:55;5.20;;;3.60;;
17854;SDS011;9053;53.358;6.382;2024-02-16T06:23:28;5.90;;;3.87;;
17854;SDS011;9053;53.358;6.382;2024-02-16T06:26:00;6.33;;;4.00;;
17854;SDS011;9053;53.358;6.382;2024-02-16T06:28:40;4.20;;;3.37;;
17854;SDS011;9053;53.358;6.382;2024-02-16T06:31:13;3.83;;;3.20;;
17854;SDS011;9053;53.358;6.382;2024-02-16T06:33:43;3.83;;;3.43;;
17854;SDS011;9053;53.358;6.382;2024-02-16T06:36:17;9.17;;;3.40;;
17854;SDS011;9053;53.358;6.382;2024-02-16T06:38:47;4.97;;;3.50;;
17854;SDS011;9053;53.358;6.382;2024-02-16T06:41:19;6.70;;;3.67;;
17854;SDS011;9053;53.358;6.382;2024-02-16T06:43:54;5.03;;;3.30;;
17854;SDS011;9053;53.358;6.382;2024-02-16T06:46:28;4.63;;;3.30;;
17854;SDS011;9053;53.358;6.382;2024-02-16T06:48:58;3.77;;;3.30;;
17854;SDS011;9053;53.358;6.382;2024-02-16T06:51:28;4.63;;;3.00;;
17854;SDS011;9053;53.358;6.382;2024-02-16T06:54:01;4.80;;;3.53;;
17854;SDS011;9053;53.358;6.382;2024-02-16T06:56:39;4.50;;;3.50;;
17854;SDS011;9053;53.358;6.382;2024-02-16T06:59:13;5.77;;;3.53;;
17854;SDS011;9053;53.358;6.382;2024-02-16T07:01:43;6.40;;;3.67;;
17854;SDS011;9053;53.358;6.382;2024-02-16T07:04:16;4.47;;;3.00;;
17854;SDS011;9053;53.358;6.382;2024-02-16T07:06:51;4.80;;;3.60;;
17854;SDS011;9053;53.358;6.382;2024-02-16T07:09:25;4.70;;;3.60;;
17854;SDS011;9053;53.358;6.382;2024-02-16T07:12:00;6.67;;;3.93;;
17854;SDS011;9053;53.358;6.382;2024-02-16T07:14:44;5.23;;;3.37;;
17854;SDS011;9053;53.358;6.382;2024-02-16T07:17:20;4.23;;;3.40;;
17854;SDS011;9053;53.358;6.382;2024-02-16T07:19:57;4.23;;;3.20;;
17854;SDS011;9053;53.358;6.382;2024-02-16T07:22:39;4.37;;;3.20;;
17854;SDS011;9053;53.358;6.382;2024-02-16T07:25:09;4.87;;;3.40;;
17854;SDS011;9053;53.358;6.382;2024-02-16T07:27:40;5.80;;;3.50;;
17854;SDS011;9053;53.358;6.382;2024-02-16T07:30:15;5.60;;;3.40;;
17854;SDS011;9053;53.358;6.382;2024-02-16T07:32:58;4.63;;;3.13;;
17854;SDS011;9053;53.358;6.382;2024-02-16T07:35:32;5.20;;;3.50;;
17854;SDS011;9053;53.358;6.382;2024-02-16T07:38:05;6.10;;;3.60;;
17854;SDS011;9053;53.358;6.382;2024-02-16T07:40:36;4.23;;;3.50;;
17854;SDS011;9053;53.358;6.382;2024-02-16T07:43:11;5.73;;;3.77;;
17854;SDS011;9053;53.358;6.382;2024-02-16T07:45:48;4.00;;;3.50;;
17854;SDS011;9053;53.358;6.382;2024-02-16T07:48:22;4.27;;;3.33;;
17854;SDS011;9053;53.358;6.382;2024-02-16T07:50:57;5.77;;;3.73;;
17854;SDS011;9053;53.358;6.382;2024-02-16T07:53:31;4.10;;;3.50;;
17854;SDS011;9053;53.358;6.382;2024-02-16T07:56:03;4.07;;;3.40;;
17854;SDS011;9053;53.358;6.382;2024-02-16T07:58:36;5.27;;;3.67;;
17854;SDS011;9053;53.358;6.382;2024-02-16T08:01:11;4.87;;;3.50;;
17854;SDS011;9053;53.358;6.382;2024-02-16T08:03:43;5.23;;;3.30;;
17854;SDS011;9053;53.358;6.382;2024-02-16T08:06:17;6.30;;;3.40;;
17854;SDS011;9053;53.358;6.382;2024-02-16T08:08:48;4.90;;;3.73;;
17854;SDS011;9053;53.358;6.382;2024-02-16T08:11:22;7.80;;;3.90;;
17854;SDS011;9053;53.358;6.382;2024-02-16T08:13:54;6.17;;;3.83;;
17854;SDS011;9053;53.358;6.382;2024-02-16T08:16:31;5.03;;;3.50;;
17854;SDS011;9053;53.358;6.382;2024-02-16T08:19:01;4.27;;;3.40;;
17854;SDS011;9053;53.358;6.382;2024-02-16T08:21:35;8.53;;;3.87;;
17854;SDS011;9053;53.358;6.382;2024-02-16T08:24:11;4.47;;;3.40;;
17854;SDS011;9053;53.358;6.382;2024-02-16T08:26:41;5.90;;;3.77;;
17854;SDS011;9053;53.358;6.382;2024-02-16T08:29:12;6.13;;;3.37;;
17854;SDS011;9053;53.358;6.382;2024-02-16T08:31:45;6.03;;;3.60;;
17854;SDS011;9053;53.358;6.382;2024-02-16T08:34:31;7.00;;;3.73;;
17854;SDS011;9053;53.358;6.382;2024-02-16T08:37:04;6.00;;;4.07;;
17854;SDS011;9053;53.358;6.382;2024-02-16T08:39:37;5.07;;;3.57;;
17854;SDS011;9053;53.358;6.382;2024-02-16T08:42:12;5.80;;;3.80;;
17854;SDS011;9053;53.358;6.382;2024-02-16T08:44:42;5.63;;;4.40;;
17854;SDS011;9053;53.358;6.382;2024-02-16T08:47:37;5.87;;;4.13;;
17854;SDS011;9053;53.358;6.382;2024-02-16T08:50:10;6.30;;;4.13;;
17854;SDS011;9053;53.358;6.382;2024-02-16T08:52:40;5.70;;;4.13;;
17854;SDS011;9053;53.358;6.382;2024-02-16T08:55:14;6.13;;;4.30;;
17854;SDS011;9053;53.358;6.382;2024-02-16T08:57:46;6.17;;;4.20;;
17854;SDS011;9053;53.358;6.382;2024-02-16T09:00:19;5.53;;;3.97;;
17854;SDS011;9053;53.358;6.382;2024-02-16T09:03:12;5.43;;;4.30;;
17854;SDS011;9053;53.358;6.382;2024-02-16T09:05:43;6.60;;;4.43;;
17854;SDS011;9053;53.358;6.382;2024-02-16T09:08:26;5.97;;;4.30;;
17854;SDS011;9053;53.358;6.382;2024-02-16T09:10:59;7.60;;;4.47;;
17854;SDS011;9053;53.358;6.382;2024-02-16T09:13:32;5.30;;;4.40;;
17854;SDS011;9053;53.358;6.382;2024-02-16T09:16:07;4.10;;;3.70;;
17854;SDS011;9053;53.358;6.382;2024-02-16T09:18:40;6.97;;;4.30;;
17854;SDS011;9053;53.358;6.382;2024-02-16T09:21:17;5.80;;;4.27;;
17854;SDS011;9053;53.358;6.382;2024-02-16T09:23:47;6.33;;;4.40;;
17854;SDS011;9053;53.358;6.382;2024-02-16T09:26:19;7.97;;;5.27;;
17854;SDS011;9053;53.358;6.382;2024-02-16T09:28:59;9.93;;;5.30;;
17854;SDS011;9053;53.358;6.382;2024-02-16T09:31:33;6.07;;;4.70;;
17854;SDS011;9053;53.358;6.382;2024-02-16T09:34:09;6.53;;;5.07;;
17854;SDS011;9053;53.358;6.382;2024-02-16T09:36:42;6.57;;;4.80;;
17854;SDS011;9053;53.358;6.382;2024-02-16T09:39:19;7.70;;;5.00;;
17854;SDS011;9053;53.358;6.382;2024-02-16T09:42:05;7.70;;;5.23;;
17854;SDS011;9053;53.358;6.382;2024-02-16T09:45:12;6.90;;;5.07;;
17854;SDS011;9053;53.358;6.382;2024-02-16T09:47:51;8.90;;;6.00;;
17854;SDS011;9053;53.358;6.382;2024-02-16T09:50:35;8.30;;;5.77;;
17854;SDS011;9053;53.358;6.382;2024-02-16T09:53:11;8.43;;;5.73;;
17854;SDS011;9053;53.358;6.382;2024-02-16T09:55:51;7.60;;;5.40;;
17854;SDS011;9053;53.358;6.382;2024-02-16T09:58:21;7.83;;;5.77;;
17854;SDS011;9053;53.358;6.382;2024-02-16T10:00:56;7.47;;;5.67;;
17854;SDS011;9053;53.358;6.382;2024-02-16T10:03:28;8.37;;;5.93;;
17854;SDS011;9053;53.358;6.382;2024-02-16T10:06:08;8.07;;;5.43;;
17854;SDS011;9053;53.358;6.382;2024-02-16T10:08:47;7.43;;;5.50;;
17854;SDS011;9053;53.358;6.382;2024-02-16T10:11:24;7.17;;;5.60;;
17854;SDS011;9053;53.358;6.382;2024-02-16T10:13:57;7.70;;;5.47;;
17854;SDS011;9053;53.358;6.382;2024-02-16T10:16:31;7.77;;;6.03;;
17854;SDS011;9053;53.358;6.382;2024-02-16T10:19:06;9.20;;;6.07;;
17854;SDS011;9053;53.358;6.382;2024-02-16T10:21:45;9.93;;;6.57;;
17854;SDS011;9053;53.358;6.382;2024-02-16T10:24:21;10.73;;;5.90;;
17854;SDS011;9053;53.358;6.382;2024-02-16T10:26:54;11.13;;;6.53;;
17854;SDS011;9053;53.358;6.382;2024-02-16T10:29:36;7.60;;;6.13;;
17854;SDS011;9053;53.358;6.382;2024-02-16T10:39:37;8.90;;;5.83;;
17854;SDS011;9053;53.358;6.382;2024-02-16T10:42:12;10.10;;;6.00;;
17854;SDS011;9053;53.358;6.382;2024-02-16T10:44:47;9.40;;;6.50;;
17854;SDS011;9053;53.358;6.382;2024-02-16T10:47:25;8.87;;;5.90;;
17854;SDS011;9053;53.358;6.382;2024-02-16T10:49:55;9.20;;;6.47;;
17854;SDS011;9053;53.358;6.382;2024-02-16T10:52:25;10.03;;;6.50;;
17854;SDS011;9053;53.358;6.382;2024-02-16T10:57:44;12.77;;;8.60;;
17854;SDS011;9053;53.358;6.382;2024-02-16T11:00:19;14.13;;;8.17;;
17854;SDS011;9053;53.358;6.382;2024-02-16T11:02:52;13.70;;;8.37;;
17854;SDS011;9053;53.358;6.382;2024-02-16T11:05:33;17.50;;;8.90;;
17854;SDS011;9053;53.358;6.382;2024-02-16T11:08:31;16.63;;;9.20;;
17854;SDS011;9053;53.358;6.382;2024-02-16T11:31:08;16.77;;;10.03;;
17854;SDS011;9053;53.358;6.382;2024-02-16T11:33:51;18.83;;;10.10;;
17854;SDS011;9053;53.358;6.382;2024-02-16T11:36:23;18.13;;;9.13;;
17854;SDS011;9053;53.358;6.382;2024-02-16T11:39:11;16.83;;;9.37;;
17854;SDS011;9053;53.358;6.382;2024-02-16T11:42:27;16.43;;;8.60;;
17854;SDS011;9053;53.358;6.382;2024-02-16T12:06:18;14.00;;;7.73;;
17854;SDS011;9053;53.358;6.382;2024-02-16T12:08:51;15.77;;;8.13;;
17854;SDS011;9053;53.358;6.382;2024-02-16T12:11:23;17.07;;;10.60;;
17854;SDS011;9053;53.358;6.382;2024-02-16T12:13:53;12.40;;;8.00;;
17854;SDS011;9053;53.358;6.382;2024-02-16T12:16:25;10.53;;;6.97;;
17854;SDS011;9053;53.358;6.382;2024-02-16T12:19:03;10.13;;;7.00;;
17854;SDS011;9053;53.358;6.382;2024-02-16T12:21:38;11.90;;;6.53;;
17854;SDS011;9053;53.358;6.382;2024-02-16T12:24:08;12.93;;;6.17;;
17854;SDS011;9053;53.358;6.382;2024-02-16T12:26:49;11.33;;;5.53;;
17854;SDS011;9053;53.358;6.382;2024-02-16T12:29:19;8.80;;;6.30;;
17854;SDS011;9053;53.358;6.382;2024-02-16T12:31:49;6.67;;;5.00;;
17854;SDS011;9053;53.358;6.382;2024-02-16T12:34:19;7.63;;;4.87;;
17854;SDS011;9053;53.358;6.382;2024-02-16T12:36:55;8.03;;;4.90;;
17854;SDS011;9053;53.358;6.382;2024-02-16T12:39:30;7.10;;;4.83;;
17854;SDS011;9053;53.358;6.382;2024-02-16T12:42:02;6.27;;;4.40;;
17854;SDS011;9053;53.358;6.382;2024-02-16T12:47:05;5.57;;;3.50;;
17854;SDS011;9053;53.358;6.382;2024-02-16T12:55:48;3.10;;;2.10;;
17854;SDS011;9053;53.358;6.382;2024-02-16T12:58:20;3.70;;;2.17;;
17854;SDS011;9053;53.358;6.382;2024-02-16T13:00:51;3.20;;;2.77;;
17854;SDS011;9053;53.358;6.382;2024-02-16T13:03:34;3.37;;;2.07;;
17854;SDS011;9053;53.358;6.382;2024-02-16T13:06:08;2.93;;;1.90;;
17854;SDS011;9053;53.358;6.382;2024-02-16T13:08:38;2.57;;;2.00;;
17854;SDS011;9053;53.358;6.382;2024-02-16T13:11:16;2.00;;;1.80;;
17854;SDS011;9053;53.358;6.382;2024-02-16T13:13:50;3.60;;;2.03;;
17854;SDS011;9053;53.358;6.382;2024-02-16T13:16:21;3.47;;;2.40;;
17854;SDS011;9053;53.358;6.382;2024-02-16T13:18:55;2.83;;;2.40;;
17854;SDS011;9053;53.358;6.382;2024-02-16T13:21:25;4.07;;;2.60;;
17854;SDS011;9053;53.358;6.382;2024-02-16T13:23:56;3.13;;;2.57;;
17854;SDS011;9053;53.358;6.382;2024-02-16T13:26:29;3.90;;;2.30;;
17854;SDS011;9053;53.358;6.382;2024-02-16T13:32:45;3.73;;;2.87;;
17854;SDS011;9053;53.358;6.382;2024-02-16T13:35:23;5.57;;;2.80;;
17854;SDS011;9053;53.358;6.382;2024-02-16T13:37:54;3.57;;;2.37;;
17854;SDS011;9053;53.358;6.382;2024-02-16T13:40:27;3.67;;;2.67;;
17854;SDS011;9053;53.358;6.382;2024-02-16T13:43:02;4.70;;;2.87;;
17854;SDS011;9053;53.358;6.382;2024-02-16T13:45:47;4.23;;;2.80;;
17854;SDS011;9053;53.358;6.382;2024-02-16T13:48:19;3.90;;;2.93;;
17854;SDS011;9053;53.358;6.382;2024-02-16T13:50:50;4.33;;;3.20;;
17854;SDS011;9053;53.358;6.382;2024-02-16T13:53:25;5.53;;;3.50;;
17854;SDS011;9053;53.358;6.382;2024-02-16T13:56:05;5.63;;;3.40;;
17854;SDS011;9053;53.358;6.382;2024-02-16T13:58:40;5.57;;;3.73;;
17854;SDS011;9053;53.358;6.382;2024-02-16T14:01:12;5.83;;;3.53;;
17854;SDS011;9053;53.358;6.382;2024-02-16T14:03:51;9.07;;;3.93;;
17854;SDS011;9053;53.358;6.382;2024-02-16T14:19:27;6.90;;;4.33;;
17854;SDS011;9053;53.358;6.382;2024-02-16T14:24:24;7.70;;;4.23;;
17854;SDS011;9053;53.358;6.382;2024-02-16T14:26:54;6.30;;;3.97;;
17854;SDS011;9053;53.358;6.382;2024-02-16T14:29:27;6.80;;;3.83;;
17854;SDS011;9053;53.358;6.382;2024-02-16T14:31:58;6.47;;;3.80;;
17854;SDS011;9053;53.358;6.382;2024-02-16T14:34:32;6.57;;;3.93;;
17854;SDS011;9053;53.358;6.382;2024-02-16T14:37:26;8.50;;;4.03;;
17854;SDS011;9053;53.358;6.382;2024-02-16T14:40:08;4.67;;;3.33;;
17854;SDS011;9053;53.358;6.382;2024-02-16T14:42:39;6.07;;;3.80;;
17854;SDS011;9053;53.358;6.382;2024-02-16T14:45:13;6.40;;;3.47;;
17854;SDS011;9053;53.358;6.382;2024-02-16T14:47:56;7.60;;;3.60;;
17854;SDS011;9053;53.358;6.382;2024-02-16T14:50:29;7.03;;;3.37;;
17854;SDS011;9053;53.358;6.382;2024-02-16T14:53:03;5.47;;;3.47;;
17854;SDS011;9053;53.358;6.382;2024-02-16T14:55:38;6.30;;;3.17;;
17854;SDS011;9053;53.358;6.382;2024-02-16T14:58:16;8.63;;;3.73;;
17854;SDS011;9053;53.358;6.382;2024-02-16T15:00:47;5.60;;;3.80;;
17854;SDS011;9053;53.358;6.382;2024-02-16T15:03:26;7.43;;;4.40;;
17854;SDS011;9053;53.358;6.382;2024-02-16T15:06:01;6.43;;;3.80;;
17854;SDS011;9053;53.358;6.382;2024-02-16T15:08:33;10.33;;;5.37;;
17854;SDS011;9053;53.358;6.382;2024-02-16T15:11:03;8.57;;;4.07;;
17854;SDS011;9053;53.358;6.382;2024-02-16T15:13:47;6.23;;;3.73;;
17854;SDS011;9053;53.358;6.382;2024-02-16T15:16:20;6.33;;;3.77;;
17854;SDS011;9053;53.358;6.382;2024-02-16T15:19:00;5.27;;;3.37;;
17854;SDS011;9053;53.358;6.382;2024-02-16T15:21:36;4.87;;;3.30;;
17854;SDS011;9053;53.358;6.382;2024-02-16T15:24:10;5.67;;;3.43;;
17854;SDS011;9053;53.358;6.382;2024-02-16T15:26:43;6.80;;;3.67;;
17854;SDS011;9053;53.358;6.382;2024-02-16T15:29:20;5.57;;;3.57;;
17854;SDS011;9053;53.358;6.382;2024-02-16T15:31:50;7.00;;;3.20;;
17854;SDS011;9053;53.358;6.382;2024-02-16T15:34:25;6.07;;;3.70;;
17854;SDS011;9053;53.358;6.382;2024-02-16T15:37:05;7.07;;;3.77;;
17854;SDS011;9053;53.358;6.382;2024-02-16T15:39:35;8.20;;;4.00;;
17854;SDS011;9053;53.358;6.382;2024-02-16T15:42:08;8.73;;;4.57;;
17854;SDS011;9053;53.358;6.382;2024-02-16T15:44:38;7.17;;;4.53;;
17854;SDS011;9053;53.358;6.382;2024-02-16T15:47:09;6.53;;;4.03;;
17854;SDS011;9053;53.358;6.382;2024-02-16T15:49:49;8.37;;;4.83;;
17854;SDS011;9053;53.358;6.382;2024-02-16T15:52:24;11.73;;;5.93;;
17854;SDS011;9053;53.358;6.382;2024-02-16T15:55:01;7.53;;;4.83;;
17854;SDS011;9053;53.358;6.382;2024-02-16T15:57:35;9.67;;;5.53;;
17854;SDS011;9053;53.358;6.382;2024-02-16T16:00:12;9.13;;;5.30;;
17854;SDS011;9053;53.358;6.382;2024-02-16T16:02:47;14.63;;;6.53;;
17854;SDS011;9053;53.358;6.382;2024-02-16T16:05:19;10.53;;;6.23;;
17854;SDS011;9053;53.358;6.382;2024-02-16T16:07:58;12.07;;;6.67;;
17854;SDS011;9053;53.358;6.382;2024-02-16T16:10:36;11.23;;;6.60;;
17854;SDS011;9053;53.358;6.382;2024-02-16T16:13:06;10.53;;;6.30;;
17854;SDS011;9053;53.358;6.382;2024-02-16T16:15:42;12.23;;;6.70;;
17854;SDS011;9053;53.358;6.382;2024-02-16T16:18:13;13.13;;;7.17;;
17854;SDS011;9053;53.358;6.382;2024-02-16T16:20:46;14.47;;;8.17;;
17854;SDS011;9053;53.358;6.382;2024-02-16T16:23:21;11.43;;;7.23;;
17854;SDS011;9053;53.358;6.382;2024-02-16T16:26:05;14.57;;;7.90;;
17854;SDS011;9053;53.358;6.382;2024-02-16T16:28:35;14.40;;;7.40;;
17854;SDS011;9053;53.358;6.382;2024-02-16T16:31:06;15.97;;;8.30;;
17854;SDS011;9053;53.358;6.382;2024-02-16T16:33:43;15.60;;;8.00;;
17854;SDS011;9053;53.358;6.382;2024-02-16T16:36:16;15.57;;;8.07;;
17854;SDS011;9053;53.358;6.382;2024-02-16T16:38:52;12.33;;;7.40;;
17854;SDS011;9053;53.358;6.382;2024-02-16T16:41:22;13.80;;;7.27;;
17854;SDS011;9053;53.358;6.382;2024-02-16T16:44:02;11.87;;;6.57;;
17854;SDS011;9053;53.358;6.382;2024-02-16T16:46:48;13.43;;;6.83;;
17854;SDS011;9053;53.358;6.382;2024-02-16T16:49:21;11.80;;;6.87;;
17854;SDS011;9053;53.358;6.382;2024-02-16T16:52:10;13.13;;;6.83;;
17854;SDS011;9053;53.358;6.382;2024-02-16T16:54:43;12.30;;;6.90;;
17854;SDS011;9053;53.358;6.382;2024-02-16T16:57:13;15.17;;;7.80;;
17854;SDS011;9053;53.358;6.382;2024-02-16T16:59:45;16.03;;;8.77;;
17854;SDS011;9053;53.358;6.382;2024-02-16T17:02:29;13.97;;;8.20;;
17854;SDS011;9053;53.358;6.382;2024-02-16T17:05:00;15.40;;;9.13;;
17854;SDS011;9053;53.358;6.382;2024-02-16T17:07:34;15.83;;;8.87;;